sensor_id;sensor_type;location;lat;lon;timestamp;P1;durP1;ratioP1;P2;durP2;ratioP2
73729;SDS011;62036;48.128;16.458;2022-10-16T00:00:39;53.40;;;22.75;;
73729;SDS011;62036;48.128;16.458;2022-10-16T00:03:05;40.33;;;18.10;;
73729;SDS011;62036;48.128;16.458;2022-10-16T00:05:31;27.45;;;16.67;;
73729;SDS011;62036;48.128;16.458;2022-10-16T00:07:58;22.50;;;14.82;;
73729;SDS011;62036;48.128;16.458;2022-10-16T00:10:24;22.05;;;15.50;;
73729;SDS011;62036;48.128;16.458;2022-10-16T00:12:50;17.13;;;12.68;;
73729;SDS011;62036;48.128;16.458;2022-10-16T00:15:16;15.82;;;11.82;;
73729;SDS011;62036;48.128;16.458;2022-10-16T00:17:42;15.80;;;12.05;;
73729;SDS011;62036;48.128;16.458;2022-10-16T00:20:08;16.48;;;12.73;;
73729;SDS011;62036;48.128;16.458;2022-10-16T00:22:37;19.67;;;13.40;;
73729;SDS011;62036;48.128;16.458;2022-10-16T00:25:05;16.98;;;12.15;;
73729;SDS011;62036;48.128;16.458;2022-10-16T00:27:31;11.95;;;10.65;;
73729;SDS011;62036;48.128;16.458;2022-10-16T00:29:57;13.25;;;11.25;;
73729;SDS011;62036;48.128;16.458;2022-10-16T00:32:23;31.90;;;11.05;;
73729;SDS011;62036;48.128;16.458;2022-10-16T00:34:49;24.33;;;11.68;;
73729;SDS011;62036;48.128;16.458;2022-10-16T00:37:15;20.20;;;14.73;;
73729;SDS011;62036;48.128;16.458;2022-10-16T00:39:41;17.98;;;12.85;;
73729;SDS011;62036;48.128;16.458;2022-10-16T00:42:09;33.72;;;15.80;;
73729;SDS011;62036;48.128;16.458;2022-10-16T00:44:51;25.20;;;17.58;;
73729;SDS011;62036;48.128;16.458;2022-10-16T00:49:44;23.55;;;15.68;;
73729;SDS011;62036;48.128;16.458;2022-10-16T00:52:10;25.15;;;15.57;;
73729;SDS011;62036;48.128;16.458;2022-10-16T00:54:36;21.23;;;14.70;;
73729;SDS011;62036;48.128;16.458;2022-10-16T00:57:04;17.02;;;13.15;;
73729;SDS011;62036;48.128;16.458;2022-10-16T00:59:34;16.55;;;13.05;;
73729;SDS011;62036;48.128;16.458;2022-10-16T01:02:01;18.20;;;14.02;;
73729;SDS011;62036;48.128;16.458;2022-10-16T01:04:29;18.63;;;14.07;;
73729;SDS011;62036;48.128;16.458;2022-10-16T01:09:26;19.02;;;14.40;;
73729;SDS011;62036;48.128;16.458;2022-10-16T01:12:08;19.55;;;14.60;;
73729;SDS011;62036;48.128;16.458;2022-10-16T01:14:48;18.35;;;14.02;;
73729;SDS011;62036;48.128;16.458;2022-10-16T01:17:18;19.77;;;13.82;;
73729;SDS011;62036;48.128;16.458;2022-10-16T01:22:14;18.50;;;14.20;;
73729;SDS011;62036;48.128;16.458;2022-10-16T01:24:42;18.80;;;14.07;;
73729;SDS011;62036;48.128;16.458;2022-10-16T01:27:21;21.13;;;14.63;;
73729;SDS011;62036;48.128;16.458;2022-10-16T01:29:56;18.23;;;13.57;;
73729;SDS011;62036;48.128;16.458;2022-10-16T01:34:52;18.08;;;13.27;;
73729;SDS011;62036;48.128;16.458;2022-10-16T01:37:37;15.55;;;13.68;;
73729;SDS011;62036;48.128;16.458;2022-10-16T01:40:05;18.40;;;15.30;;
73729;SDS011;62036;48.128;16.458;2022-10-16T01:42:37;19.98;;;14.82;;
73729;SDS011;62036;48.128;16.458;2022-10-16T01:45:05;17.52;;;13.55;;
73729;SDS011;62036;48.128;16.458;2022-10-16T01:47:32;16.52;;;13.43;;
73729;SDS011;62036;48.128;16.458;2022-10-16T01:50:01;18.65;;;14.02;;
73729;SDS011;62036;48.128;16.458;2022-10-16T01:52:29;18.75;;;15.70;;
73729;SDS011;62036;48.128;16.458;2022-10-16T01:54:56;18.42;;;14.65;;
73729;SDS011;62036;48.128;16.458;2022-10-16T01:57:23;21.35;;;15.80;;
73729;SDS011;62036;48.128;16.458;2022-10-16T01:59:51;24.85;;;15.57;;
73729;SDS011;62036;48.128;16.458;2022-10-16T02:02:18;23.75;;;16.05;;
73729;SDS011;62036;48.128;16.458;2022-10-16T02:04:47;29.10;;;16.35;;
73729;SDS011;62036;48.128;16.458;2022-10-16T02:07:14;28.50;;;16.95;;
73729;SDS011;62036;48.128;16.458;2022-10-16T02:09:41;25.10;;;17.00;;
73729;SDS011;62036;48.128;16.458;2022-10-16T02:12:14;24.88;;;17.30;;
73729;SDS011;62036;48.128;16.458;2022-10-16T02:14:41;22.48;;;16.33;;
73729;SDS011;62036;48.128;16.458;2022-10-16T02:17:12;25.00;;;16.75;;
73729;SDS011;62036;48.128;16.458;2022-10-16T02:19:38;24.92;;;17.20;;
73729;SDS011;62036;48.128;16.458;2022-10-16T02:22:04;23.08;;;15.63;;
73729;SDS011;62036;48.128;16.458;2022-10-16T02:24:50;23.05;;;16.60;;
73729;SDS011;62036;48.128;16.458;2022-10-16T02:32:32;27.80;;;17.33;;
73729;SDS011;62036;48.128;16.458;2022-10-16T02:34:59;23.58;;;17.05;;
73729;SDS011;62036;48.128;16.458;2022-10-16T02:37:25;26.13;;;16.77;;
73729;SDS011;62036;48.128;16.458;2022-10-16T02:39:52;23.77;;;16.15;;
73729;SDS011;62036;48.128;16.458;2022-10-16T02:42:19;25.48;;;17.38;;
73729;SDS011;62036;48.128;16.458;2022-10-16T02:44:45;23.17;;;17.13;;
73729;SDS011;62036;48.128;16.458;2022-10-16T02:47:11;21.90;;;16.75;;
73729;SDS011;62036;48.128;16.458;2022-10-16T02:49:37;21.35;;;16.30;;
73729;SDS011;62036;48.128;16.458;2022-10-16T02:52:03;23.00;;;16.85;;
73729;SDS011;62036;48.128;16.458;2022-10-16T02:54:29;22.02;;;16.25;;
73729;SDS011;62036;48.128;16.458;2022-10-16T02:56:55;21.92;;;16.27;;
73729;SDS011;62036;48.128;16.458;2022-10-16T02:59:21;21.08;;;15.23;;
73729;SDS011;62036;48.128;16.458;2022-10-16T03:01:47;22.67;;;16.42;;
73729;SDS011;62036;48.128;16.458;2022-10-16T03:04:14;22.63;;;18.05;;
73729;SDS011;62036;48.128;16.458;2022-10-16T03:06:40;24.20;;;16.50;;
73729;SDS011;62036;48.128;16.458;2022-10-16T03:09:06;20.33;;;15.73;;
73729;SDS011;62036;48.128;16.458;2022-10-16T03:11:32;23.42;;;16.73;;
73729;SDS011;62036;48.128;16.458;2022-10-16T03:13:58;20.45;;;15.65;;
73729;SDS011;62036;48.128;16.458;2022-10-16T03:16:25;23.90;;;16.20;;
73729;SDS011;62036;48.128;16.458;2022-10-16T03:18:51;20.83;;;15.20;;
73729;SDS011;62036;48.128;16.458;2022-10-16T03:21:17;21.80;;;16.33;;
73729;SDS011;62036;48.128;16.458;2022-10-16T03:23:43;22.55;;;15.02;;
73729;SDS011;62036;48.128;16.458;2022-10-16T03:26:09;27.42;;;17.83;;
73729;SDS011;62036;48.128;16.458;2022-10-16T03:28:35;25.70;;;18.58;;
73729;SDS011;62036;48.128;16.458;2022-10-16T03:31:01;27.15;;;17.67;;
73729;SDS011;62036;48.128;16.458;2022-10-16T03:33:27;26.65;;;17.00;;
73729;SDS011;62036;48.128;16.458;2022-10-16T03:35:53;26.73;;;16.58;;
73729;SDS011;62036;48.128;16.458;2022-10-16T03:38:20;24.85;;;16.30;;
73729;SDS011;62036;48.128;16.458;2022-10-16T03:40:46;25.33;;;17.48;;
73729;SDS011;62036;48.128;16.458;2022-10-16T03:43:12;32.17;;;18.42;;
73729;SDS011;62036;48.128;16.458;2022-10-16T03:45:38;26.60;;;17.40;;
73729;SDS011;62036;48.128;16.458;2022-10-16T03:48:04;32.67;;;16.90;;
73729;SDS011;62036;48.128;16.458;2022-10-16T03:50:31;27.02;;;16.40;;
73729;SDS011;62036;48.128;16.458;2022-10-16T03:52:57;23.60;;;15.55;;
73729;SDS011;62036;48.128;16.458;2022-10-16T03:55:23;23.73;;;15.75;;
73729;SDS011;62036;48.128;16.458;2022-10-16T03:57:49;19.98;;;14.93;;
73729;SDS011;62036;48.128;16.458;2022-10-16T04:00:15;21.90;;;15.05;;
73729;SDS011;62036;48.128;16.458;2022-10-16T04:02:41;20.70;;;14.93;;
73729;SDS011;62036;48.128;16.458;2022-10-16T04:05:07;22.65;;;16.38;;
73729;SDS011;62036;48.128;16.458;2022-10-16T04:07:34;24.85;;;17.70;;
73729;SDS011;62036;48.128;16.458;2022-10-16T04:10:00;23.02;;;16.77;;
73729;SDS011;62036;48.128;16.458;2022-10-16T04:12:26;24.33;;;16.98;;
73729;SDS011;62036;48.128;16.458;2022-10-16T04:14:52;21.75;;;16.10;;
73729;SDS011;62036;48.128;16.458;2022-10-16T04:17:18;23.10;;;16.60;;
73729;SDS011;62036;48.128;16.458;2022-10-16T04:19:44;22.17;;;15.32;;
73729;SDS011;62036;48.128;16.458;2022-10-16T04:22:10;21.83;;;15.82;;
73729;SDS011;62036;48.128;16.458;2022-10-16T04:24:36;21.52;;;16.55;;
73729;SDS011;62036;48.128;16.458;2022-10-16T04:27:02;22.98;;;16.55;;
73729;SDS011;62036;48.128;16.458;2022-10-16T04:29:29;23.55;;;15.85;;
73729;SDS011;62036;48.128;16.458;2022-10-16T04:31:55;26.17;;;16.38;;
73729;SDS011;62036;48.128;16.458;2022-10-16T04:34:21;23.83;;;16.35;;
73729;SDS011;62036;48.128;16.458;2022-10-16T04:36:47;25.73;;;18.13;;
73729;SDS011;62036;48.128;16.458;2022-10-16T04:39:17;32.60;;;19.35;;
73729;SDS011;62036;48.128;16.458;2022-10-16T04:41:43;27.92;;;18.70;;
73729;SDS011;62036;48.128;16.458;2022-10-16T04:44:11;32.13;;;20.30;;
73729;SDS011;62036;48.128;16.458;2022-10-16T04:46:37;34.83;;;20.35;;
73729;SDS011;62036;48.128;16.458;2022-10-16T04:49:03;33.42;;;19.60;;
73729;SDS011;62036;48.128;16.458;2022-10-16T04:51:29;35.55;;;21.45;;
73729;SDS011;62036;48.128;16.458;2022-10-16T04:53:55;37.17;;;20.45;;
73729;SDS011;62036;48.128;16.458;2022-10-16T04:56:21;30.83;;;18.17;;
73729;SDS011;62036;48.128;16.458;2022-10-16T04:58:47;33.35;;;19.10;;
73729;SDS011;62036;48.128;16.458;2022-10-16T05:01:13;32.47;;;19.27;;
73729;SDS011;62036;48.128;16.458;2022-10-16T05:03:39;34.20;;;20.75;;
73729;SDS011;62036;48.128;16.458;2022-10-16T05:06:06;30.35;;;18.80;;
73729;SDS011;62036;48.128;16.458;2022-10-16T05:08:32;29.98;;;17.98;;
73729;SDS011;62036;48.128;16.458;2022-10-16T05:10:58;27.15;;;16.77;;
73729;SDS011;62036;48.128;16.458;2022-10-16T05:13:24;24.40;;;15.68;;
73729;SDS011;62036;48.128;16.458;2022-10-16T05:15:53;21.23;;;15.20;;
73729;SDS011;62036;48.128;16.458;2022-10-16T05:18:19;22.95;;;15.90;;
73729;SDS011;62036;48.128;16.458;2022-10-16T05:20:45;23.95;;;15.55;;
73729;SDS011;62036;48.128;16.458;2022-10-16T05:23:11;27.55;;;16.75;;
73729;SDS011;62036;48.128;16.458;2022-10-16T05:25:40;23.88;;;15.95;;
73729;SDS011;62036;48.128;16.458;2022-10-16T05:28:06;25.95;;;17.65;;
73729;SDS011;62036;48.128;16.458;2022-10-16T05:30:32;29.85;;;16.67;;
73729;SDS011;62036;48.128;16.458;2022-10-16T05:32:58;26.52;;;17.25;;
73729;SDS011;62036;48.128;16.458;2022-10-16T05:35:24;26.23;;;16.83;;
73729;SDS011;62036;48.128;16.458;2022-10-16T05:37:50;36.90;;;17.38;;
73729;SDS011;62036;48.128;16.458;2022-10-16T05:40:16;36.38;;;17.40;;
73729;SDS011;62036;48.128;16.458;2022-10-16T05:42:42;28.45;;;17.10;;
73729;SDS011;62036;48.128;16.458;2022-10-16T05:45:09;33.55;;;18.98;;
73729;SDS011;62036;48.128;16.458;2022-10-16T05:47:36;36.03;;;18.23;;
73729;SDS011;62036;48.128;16.458;2022-10-16T05:50:02;39.88;;;20.27;;
73729;SDS011;62036;48.128;16.458;2022-10-16T05:52:29;41.20;;;20.90;;
73729;SDS011;62036;48.128;16.458;2022-10-16T05:54:55;38.28;;;20.80;;
73729;SDS011;62036;48.128;16.458;2022-10-16T05:57:21;43.28;;;21.75;;
73729;SDS011;62036;48.128;16.458;2022-10-16T05:59:47;50.50;;;22.63;;
73729;SDS011;62036;48.128;16.458;2022-10-16T06:02:13;45.38;;;22.95;;
73729;SDS011;62036;48.128;16.458;2022-10-16T06:04:39;51.88;;;23.15;;
73729;SDS011;62036;48.128;16.458;2022-10-16T06:07:05;46.38;;;24.02;;
73729;SDS011;62036;48.128;16.458;2022-10-16T06:09:31;54.15;;;25.83;;
73729;SDS011;62036;48.128;16.458;2022-10-16T06:11:57;52.40;;;25.13;;
73729;SDS011;62036;48.128;16.458;2022-10-16T06:14:23;52.13;;;24.80;;
73729;SDS011;62036;48.128;16.458;2022-10-16T06:16:49;53.00;;;25.55;;
73729;SDS011;62036;48.128;16.458;2022-10-16T06:19:15;56.58;;;26.25;;
73729;SDS011;62036;48.128;16.458;2022-10-16T06:21:42;68.82;;;28.23;;
73729;SDS011;62036;48.128;16.458;2022-10-16T06:24:09;53.35;;;29.90;;
73729;SDS011;62036;48.128;16.458;2022-10-16T06:26:35;58.72;;;27.98;;
73729;SDS011;62036;48.128;16.458;2022-10-16T06:29:01;57.83;;;28.48;;
73729;SDS011;62036;48.128;16.458;2022-10-16T06:31:27;59.08;;;26.42;;
73729;SDS011;62036;48.128;16.458;2022-10-16T06:33:56;65.30;;;31.35;;
73729;SDS011;62036;48.128;16.458;2022-10-16T06:36:22;68.20;;;31.98;;
73729;SDS011;62036;48.128;16.458;2022-10-16T06:38:49;71.00;;;31.85;;
73729;SDS011;62036;48.128;16.458;2022-10-16T06:41:19;64.28;;;31.38;;
73729;SDS011;62036;48.128;16.458;2022-10-16T06:43:46;63.28;;;30.23;;
73729;SDS011;62036;48.128;16.458;2022-10-16T06:46:13;72.80;;;28.83;;
73729;SDS011;62036;48.128;16.458;2022-10-16T06:48:39;59.45;;;28.45;;
73729;SDS011;62036;48.128;16.458;2022-10-16T06:51:10;72.10;;;30.75;;
73729;SDS011;62036;48.128;16.458;2022-10-16T06:53:37;63.90;;;32.05;;
73729;SDS011;62036;48.128;16.458;2022-10-16T06:56:10;63.95;;;29.75;;
73729;SDS011;62036;48.128;16.458;2022-10-16T06:58:36;65.47;;;30.23;;
73729;SDS011;62036;48.128;16.458;2022-10-16T07:01:03;66.07;;;33.85;;
73729;SDS011;62036;48.128;16.458;2022-10-16T07:03:30;70.03;;;31.92;;
73729;SDS011;62036;48.128;16.458;2022-10-16T07:05:56;74.82;;;34.65;;
73729;SDS011;62036;48.128;16.458;2022-10-16T07:08:22;75.35;;;33.88;;
73729;SDS011;62036;48.128;16.458;2022-10-16T07:10:48;73.78;;;34.90;;
73729;SDS011;62036;48.128;16.458;2022-10-16T07:13:14;69.90;;;32.08;;
73729;SDS011;62036;48.128;16.458;2022-10-16T07:15:40;74.22;;;35.30;;
73729;SDS011;62036;48.128;16.458;2022-10-16T07:18:07;72.75;;;35.10;;
73729;SDS011;62036;48.128;16.458;2022-10-16T07:20:33;68.80;;;33.97;;
73729;SDS011;62036;48.128;16.458;2022-10-16T07:22:59;65.25;;;30.65;;
73729;SDS011;62036;48.128;16.458;2022-10-16T07:25:25;73.15;;;35.72;;
73729;SDS011;62036;48.128;16.458;2022-10-16T07:27:51;66.05;;;31.65;;
73729;SDS011;62036;48.128;16.458;2022-10-16T07:30:17;66.38;;;32.35;;
73729;SDS011;62036;48.128;16.458;2022-10-16T07:32:43;66.45;;;33.47;;
73729;SDS011;62036;48.128;16.458;2022-10-16T07:35:09;63.33;;;31.55;;
73729;SDS011;62036;48.128;16.458;2022-10-16T07:37:35;63.78;;;32.20;;
73729;SDS011;62036;48.128;16.458;2022-10-16T07:40:01;66.00;;;32.05;;
73729;SDS011;62036;48.128;16.458;2022-10-16T07:42:27;66.43;;;32.33;;
73729;SDS011;62036;48.128;16.458;2022-10-16T07:44:53;66.90;;;32.95;;
73729;SDS011;62036;48.128;16.458;2022-10-16T07:47:19;63.08;;;32.45;;
73729;SDS011;62036;48.128;16.458;2022-10-16T07:49:45;60.88;;;31.13;;
73729;SDS011;62036;48.128;16.458;2022-10-16T07:52:11;67.68;;;29.88;;
73729;SDS011;62036;48.128;16.458;2022-10-16T07:54:37;64.18;;;29.98;;
73729;SDS011;62036;48.128;16.458;2022-10-16T07:57:03;62.30;;;31.65;;
73729;SDS011;62036;48.128;16.458;2022-10-16T07:59:29;65.75;;;35.40;;
73729;SDS011;62036;48.128;16.458;2022-10-16T08:01:56;55.40;;;28.40;;
73729;SDS011;62036;48.128;16.458;2022-10-16T08:04:22;57.67;;;29.80;;
73729;SDS011;62036;48.128;16.458;2022-10-16T08:06:48;52.08;;;28.63;;
73729;SDS011;62036;48.128;16.458;2022-10-16T08:09:14;52.15;;;28.38;;
73729;SDS011;62036;48.128;16.458;2022-10-16T08:11:40;53.20;;;28.33;;
73729;SDS011;62036;48.128;16.458;2022-10-16T08:14:06;48.67;;;26.48;;
73729;SDS011;62036;48.128;16.458;2022-10-16T08:16:32;58.28;;;31.05;;
73729;SDS011;62036;48.128;16.458;2022-10-16T08:18:58;53.58;;;28.55;;
73729;SDS011;62036;48.128;16.458;2022-10-16T08:21:24;49.75;;;28.15;;
73729;SDS011;62036;48.128;16.458;2022-10-16T08:23:51;47.22;;;26.50;;
73729;SDS011;62036;48.128;16.458;2022-10-16T08:26:17;48.67;;;25.80;;
73729;SDS011;62036;48.128;16.458;2022-10-16T08:28:44;46.45;;;25.73;;
73729;SDS011;62036;48.128;16.458;2022-10-16T08:33:36;40.85;;;24.17;;
73729;SDS011;62036;48.128;16.458;2022-10-16T08:36:03;44.30;;;24.17;;
73729;SDS011;62036;48.128;16.458;2022-10-16T08:38:29;42.53;;;22.92;;
73729;SDS011;62036;48.128;16.458;2022-10-16T08:41:19;39.75;;;22.10;;
73729;SDS011;62036;48.128;16.458;2022-10-16T08:49:00;40.25;;;23.38;;
73729;SDS011;62036;48.128;16.458;2022-10-16T08:51:29;37.58;;;21.80;;
73729;SDS011;62036;48.128;16.458;2022-10-16T08:53:57;38.17;;;21.98;;
73729;SDS011;62036;48.128;16.458;2022-10-16T08:56:24;41.95;;;23.30;;
73729;SDS011;62036;48.128;16.458;2022-10-16T08:58:51;40.67;;;22.35;;
73729;SDS011;62036;48.128;16.458;2022-10-16T09:01:17;36.17;;;22.42;;
73729;SDS011;62036;48.128;16.458;2022-10-16T09:08:48;39.67;;;22.73;;
73729;SDS011;62036;48.128;16.458;2022-10-16T09:11:21;39.65;;;23.17;;
73729;SDS011;62036;48.128;16.458;2022-10-16T09:16:39;41.35;;;24.15;;
73729;SDS011;62036;48.128;16.458;2022-10-16T09:21:45;41.80;;;22.52;;
73729;SDS011;62036;48.128;16.458;2022-10-16T09:24:20;41.75;;;23.05;;
73729;SDS011;62036;48.128;16.458;2022-10-16T09:26:46;37.28;;;21.58;;
73729;SDS011;62036;48.128;16.458;2022-10-16T09:29:13;38.30;;;22.27;;
73729;SDS011;62036;48.128;16.458;2022-10-16T09:31:40;37.30;;;21.75;;
73729;SDS011;62036;48.128;16.458;2022-10-16T09:34:08;42.75;;;23.08;;
73729;SDS011;62036;48.128;16.458;2022-10-16T09:36:43;36.63;;;22.48;;
73729;SDS011;62036;48.128;16.458;2022-10-16T09:39:10;40.95;;;22.33;;
73729;SDS011;62036;48.128;16.458;2022-10-16T09:41:39;38.80;;;21.92;;
73729;SDS011;62036;48.128;16.458;2022-10-16T09:44:16;39.30;;;22.23;;
73729;SDS011;62036;48.128;16.458;2022-10-16T09:46:44;39.75;;;22.98;;
73729;SDS011;62036;48.128;16.458;2022-10-16T09:49:23;36.45;;;20.77;;
73729;SDS011;62036;48.128;16.458;2022-10-16T09:51:50;38.72;;;22.00;;
73729;SDS011;62036;48.128;16.458;2022-10-16T09:54:17;37.40;;;22.42;;
73729;SDS011;62036;48.128;16.458;2022-10-16T09:56:43;38.78;;;23.15;;
73729;SDS011;62036;48.128;16.458;2022-10-16T09:59:17;36.90;;;22.05;;
73729;SDS011;62036;48.128;16.458;2022-10-16T10:01:48;39.78;;;21.73;;
73729;SDS011;62036;48.128;16.458;2022-10-16T10:04:15;40.13;;;21.17;;
73729;SDS011;62036;48.128;16.458;2022-10-16T10:06:45;35.67;;;20.90;;
73729;SDS011;62036;48.128;16.458;2022-10-16T10:14:18;38.90;;;21.50;;
73729;SDS011;62036;48.128;16.458;2022-10-16T10:16:44;40.45;;;22.23;;
73729;SDS011;62036;48.128;16.458;2022-10-16T10:19:14;39.70;;;23.08;;
73729;SDS011;62036;48.128;16.458;2022-10-16T10:21:40;37.40;;;22.23;;
73729;SDS011;62036;48.128;16.458;2022-10-16T10:24:11;38.25;;;22.55;;
73729;SDS011;62036;48.128;16.458;2022-10-16T10:26:37;36.97;;;21.20;;
73729;SDS011;62036;48.128;16.458;2022-10-16T10:39:43;40.08;;;22.52;;
73729;SDS011;62036;48.128;16.458;2022-10-16T10:42:25;37.15;;;23.48;;
73729;SDS011;62036;48.128;16.458;2022-10-16T10:47:45;37.90;;;21.33;;
73729;SDS011;62036;48.128;16.458;2022-10-16T11:00:57;36.88;;;22.20;;
73729;SDS011;62036;48.128;16.458;2022-10-16T11:05:56;37.15;;;21.73;;
73729;SDS011;62036;48.128;16.458;2022-10-16T11:08:34;37.47;;;22.73;;
73729;SDS011;62036;48.128;16.458;2022-10-16T11:11:02;39.83;;;23.70;;
73729;SDS011;62036;48.128;16.458;2022-10-16T11:13:33;43.10;;;26.05;;
73729;SDS011;62036;48.128;16.458;2022-10-16T11:16:02;38.97;;;22.83;;
73729;SDS011;62036;48.128;16.458;2022-10-16T11:18:44;40.33;;;23.63;;
73729;SDS011;62036;48.128;16.458;2022-10-16T11:21:11;40.45;;;23.85;;
73729;SDS011;62036;48.128;16.458;2022-10-16T11:23:41;41.80;;;24.77;;
73729;SDS011;62036;48.128;16.458;2022-10-16T11:26:13;38.75;;;23.77;;
73729;SDS011;62036;48.128;16.458;2022-10-16T11:28:50;38.83;;;24.15;;
73729;SDS011;62036;48.128;16.458;2022-10-16T11:33:48;45.65;;;25.67;;
73729;SDS011;62036;48.128;16.458;2022-10-16T11:41:16;42.33;;;24.33;;
73729;SDS011;62036;48.128;16.458;2022-10-16T11:43:46;40.13;;;23.63;;
73729;SDS011;62036;48.128;16.458;2022-10-16T11:46:18;37.13;;;23.67;;
73729;SDS011;62036;48.128;16.458;2022-10-16T11:51:31;45.45;;;27.90;;
73729;SDS011;62036;48.128;16.458;2022-10-16T11:54:02;40.97;;;25.27;;
73729;SDS011;62036;48.128;16.458;2022-10-16T11:56:31;41.03;;;23.73;;
73729;SDS011;62036;48.128;16.458;2022-10-16T11:59:06;44.30;;;26.88;;
73729;SDS011;62036;48.128;16.458;2022-10-16T12:01:41;46.85;;;27.48;;
73729;SDS011;62036;48.128;16.458;2022-10-16T12:09:26;42.00;;;25.08;;
73729;SDS011;62036;48.128;16.458;2022-10-16T12:11:53;45.00;;;26.55;;
73729;SDS011;62036;48.128;16.458;2022-10-16T12:14:33;43.75;;;26.10;;
73729;SDS011;62036;48.128;16.458;2022-10-16T12:17:01;41.72;;;26.13;;
73729;SDS011;62036;48.128;16.458;2022-10-16T12:19:30;42.95;;;26.77;;
73729;SDS011;62036;48.128;16.458;2022-10-16T12:21:57;42.65;;;24.95;;
73729;SDS011;62036;48.128;16.458;2022-10-16T12:24:41;42.97;;;23.95;;
73729;SDS011;62036;48.128;16.458;2022-10-16T12:27:22;39.30;;;22.67;;
73729;SDS011;62036;48.128;16.458;2022-10-16T12:29:53;34.85;;;22.63;;
73729;SDS011;62036;48.128;16.458;2022-10-16T12:32:33;38.35;;;23.02;;
73729;SDS011;62036;48.128;16.458;2022-10-16T12:35:00;38.60;;;23.75;;
73729;SDS011;62036;48.128;16.458;2022-10-16T12:39:53;41.75;;;23.38;;
73729;SDS011;62036;48.128;16.458;2022-10-16T12:42:30;41.88;;;25.27;;
73729;SDS011;62036;48.128;16.458;2022-10-16T12:44:56;42.58;;;25.08;;
73729;SDS011;62036;48.128;16.458;2022-10-16T12:47:24;38.92;;;22.65;;
73729;SDS011;62036;48.128;16.458;2022-10-16T12:50:00;40.03;;;22.48;;
73729;SDS011;62036;48.128;16.458;2022-10-16T12:52:37;39.20;;;23.55;;
73729;SDS011;62036;48.128;16.458;2022-10-16T12:55:04;39.72;;;23.08;;
73729;SDS011;62036;48.128;16.458;2022-10-16T12:57:34;38.45;;;23.00;;
73729;SDS011;62036;48.128;16.458;2022-10-16T13:00:10;37.90;;;22.80;;
73729;SDS011;62036;48.128;16.458;2022-10-16T13:05:29;37.55;;;22.75;;
73729;SDS011;62036;48.128;16.458;2022-10-16T13:15:56;35.97;;;22.30;;
73729;SDS011;62036;48.128;16.458;2022-10-16T13:23:31;36.78;;;21.52;;
73729;SDS011;62036;48.128;16.458;2022-10-16T13:28:43;36.78;;;22.10;;
73729;SDS011;62036;48.128;16.458;2022-10-16T13:31:12;34.05;;;22.20;;
73729;SDS011;62036;48.128;16.458;2022-10-16T13:36:17;39.92;;;21.95;;
73729;SDS011;62036;48.128;16.458;2022-10-16T13:41:14;34.10;;;20.88;;
73729;SDS011;62036;48.128;16.458;2022-10-16T13:43:41;32.90;;;20.77;;
73729;SDS011;62036;48.128;16.458;2022-10-16T13:46:12;30.73;;;18.85;;
73729;SDS011;62036;48.128;16.458;2022-10-16T13:48:38;34.05;;;20.98;;
73729;SDS011;62036;48.128;16.458;2022-10-16T13:53:32;32.65;;;19.23;;
73729;SDS011;62036;48.128;16.458;2022-10-16T13:55:58;32.05;;;19.80;;
73729;SDS011;62036;48.128;16.458;2022-10-16T13:58:25;32.25;;;21.02;;
73729;SDS011;62036;48.128;16.458;2022-10-16T14:00:53;35.25;;;20.08;;
73729;SDS011;62036;48.128;16.458;2022-10-16T14:03:19;31.05;;;18.95;;
73729;SDS011;62036;48.128;16.458;2022-10-16T14:05:47;30.00;;;17.88;;
73729;SDS011;62036;48.128;16.458;2022-10-16T14:08:14;30.55;;;17.95;;
73729;SDS011;62036;48.128;16.458;2022-10-16T14:10:40;29.95;;;18.25;;
73729;SDS011;62036;48.128;16.458;2022-10-16T14:13:06;30.05;;;18.70;;
73729;SDS011;62036;48.128;16.458;2022-10-16T14:15:33;27.90;;;16.52;;
73729;SDS011;62036;48.128;16.458;2022-10-16T14:18:00;26.63;;;17.67;;
73729;SDS011;62036;48.128;16.458;2022-10-16T14:20:27;25.60;;;16.77;;
73729;SDS011;62036;48.128;16.458;2022-10-16T14:25:27;29.08;;;17.02;;
73729;SDS011;62036;48.128;16.458;2022-10-16T14:27:57;30.30;;;19.15;;
73729;SDS011;62036;48.128;16.458;2022-10-16T14:30:25;27.13;;;17.13;;
73729;SDS011;62036;48.128;16.458;2022-10-16T14:35:28;26.95;;;17.08;;
73729;SDS011;62036;48.128;16.458;2022-10-16T14:37:55;28.50;;;17.45;;
73729;SDS011;62036;48.128;16.458;2022-10-16T14:40:23;25.58;;;18.05;;
73729;SDS011;62036;48.128;16.458;2022-10-16T14:42:50;29.17;;;16.42;;
73729;SDS011;62036;48.128;16.458;2022-10-16T14:45:23;26.20;;;16.15;;
73729;SDS011;62036;48.128;16.458;2022-10-16T14:47:54;27.77;;;18.65;;
73729;SDS011;62036;48.128;16.458;2022-10-16T14:50:20;29.15;;;16.15;;
73729;SDS011;62036;48.128;16.458;2022-10-16T14:52:46;27.05;;;16.85;;
73729;SDS011;62036;48.128;16.458;2022-10-16T14:55:14;26.98;;;16.05;;
73729;SDS011;62036;48.128;16.458;2022-10-16T14:57:40;23.30;;;15.23;;
73729;SDS011;62036;48.128;16.458;2022-10-16T15:00:10;26.20;;;16.02;;
73729;SDS011;62036;48.128;16.458;2022-10-16T15:02:40;27.63;;;17.25;;
73729;SDS011;62036;48.128;16.458;2022-10-16T15:07:41;26.85;;;16.15;;
73729;SDS011;62036;48.128;16.458;2022-10-16T15:10:07;24.20;;;14.82;;
73729;SDS011;62036;48.128;16.458;2022-10-16T15:12:33;25.15;;;15.50;;
73729;SDS011;62036;48.128;16.458;2022-10-16T15:14:59;25.20;;;16.27;;
73729;SDS011;62036;48.128;16.458;2022-10-16T15:17:25;27.30;;;16.27;;
73729;SDS011;62036;48.128;16.458;2022-10-16T15:19:51;25.70;;;15.63;;
73729;SDS011;62036;48.128;16.458;2022-10-16T15:22:17;25.58;;;16.08;;
73729;SDS011;62036;48.128;16.458;2022-10-16T15:24:43;25.80;;;16.02;;
73729;SDS011;62036;48.128;16.458;2022-10-16T15:27:09;25.15;;;16.40;;
73729;SDS011;62036;48.128;16.458;2022-10-16T15:29:35;27.30;;;16.35;;
73729;SDS011;62036;48.128;16.458;2022-10-16T15:32:01;27.52;;;17.77;;
73729;SDS011;62036;48.128;16.458;2022-10-16T15:34:27;26.48;;;17.13;;
73729;SDS011;62036;48.128;16.458;2022-10-16T15:36:53;23.33;;;15.18;;
73729;SDS011;62036;48.128;16.458;2022-10-16T15:39:21;24.80;;;15.48;;
73729;SDS011;62036;48.128;16.458;2022-10-16T15:41:47;28.95;;;19.27;;
73729;SDS011;62036;48.128;16.458;2022-10-16T15:44:16;27.08;;;15.88;;
73729;SDS011;62036;48.128;16.458;2022-10-16T15:46:42;25.15;;;15.80;;
73729;SDS011;62036;48.128;16.458;2022-10-16T15:49:08;25.40;;;16.20;;
73729;SDS011;62036;48.128;16.458;2022-10-16T15:51:34;26.42;;;17.02;;
73729;SDS011;62036;48.128;16.458;2022-10-16T15:54:03;25.80;;;15.95;;
73729;SDS011;62036;48.128;16.458;2022-10-16T15:56:29;25.80;;;15.48;;
73729;SDS011;62036;48.128;16.458;2022-10-16T15:58:58;23.83;;;15.48;;
73729;SDS011;62036;48.128;16.458;2022-10-16T16:01:24;24.23;;;14.73;;
73729;SDS011;62036;48.128;16.458;2022-10-16T16:03:54;24.67;;;14.65;;
73729;SDS011;62036;48.128;16.458;2022-10-16T16:06:20;25.73;;;15.05;;
73729;SDS011;62036;48.128;16.458;2022-10-16T16:08:46;24.17;;;14.60;;